sensor_id;sensor_type;location;lat;lon;timestamp;pressure;altitude;pressure_sealevel;temperature;humidity
9905;BME280;4991;43.566;27.820;2023-05-11T00:01:04;99458.19;;;5.32;100.00
9905;BME280;4991;43.566;27.820;2023-05-11T00:03:30;99448.97;;;5.27;100.00
9905;BME280;4991;43.566;27.820;2023-05-11T00:05:56;99457.31;;;5.26;100.00
9905;BME280;4991;43.566;27.820;2023-05-11T00:08:22;99456.94;;;5.17;100.00
9905;BME280;4991;43.566;27.820;2023-05-11T00:10:48;99452.06;;;5.14;100.00
9905;BME280;4991;43.566;27.820;2023-05-11T00:13:14;99444.78;;;5.15;100.00
9905;BME280;4991;43.566;27.820;2023-05-11T00:15:40;99450.88;;;5.05;100.00
9905;BME280;4991;43.566;27.820;2023-05-11T00:18:05;99454.81;;;4.98;100.00
9905;BME280;4991;43.566;27.820;2023-05-11T00:20:31;99453.78;;;4.99;100.00
9905;BME280;4991;43.566;27.820;2023-05-11T00:22:57;99459.53;;;5.07;100.00
9905;BME280;4991;43.566;27.820;2023-05-11T00:25:22;99460.91;;;5.10;100.00
9905;BME280;4991;43.566;27.820;2023-05-11T00:27:48;99467.88;;;5.06;100.00
9905;BME280;4991;43.566;27.820;2023-05-11T00:30:14;99466.63;;;4.92;100.00
9905;BME280;4991;43.566;27.820;2023-05-11T00:32:42;99466.69;;;4.97;100.00
9905;BME280;4991;43.566;27.820;2023-05-11T00:35:08;99465.38;;;4.99;100.00
9905;BME280;4991;43.566;27.820;2023-05-11T00:37:39;99459.66;;;4.96;100.00
9905;BME280;4991;43.566;27.820;2023-05-11T00:40:05;99463.38;;;4.90;100.00
9905;BME280;4991;43.566;27.820;2023-05-11T00:42:31;99463.38;;;4.90;100.00
9905;BME280;4991;43.566;27.820;2023-05-11T00:44:57;99464.69;;;4.87;100.00
9905;BME280;4991;43.566;27.820;2023-05-11T00:47:22;99470.31;;;4.86;100.00
9905;BME280;4991;43.566;27.820;2023-05-11T00:49:48;99466.81;;;4.85;100.00
9905;BME280;4991;43.566;27.820;2023-05-11T00:52:14;99468.13;;;4.83;100.00
9905;BME280;4991;43.566;27.820;2023-05-11T00:54:40;99468.25;;;4.71;100.00
9905;BME280;4991;43.566;27.820;2023-05-11T00:57:07;99460.59;;;4.63;100.00
9905;BME280;4991;43.566;27.820;2023-05-11T00:59:32;99466.09;;;4.52;100.00
9905;BME280;4991;43.566;27.820;2023-05-11T01:01:58;99463.47;;;4.57;100.00
9905;BME280;4991;43.566;27.820;2023-05-11T01:04:24;99468.44;;;4.65;100.00
9905;BME280;4991;43.566;27.820;2023-05-11T01:14:48;99461.91;;;4.61;100.00
9905;BME280;4991;43.566;27.820;2023-05-11T01:17:24;99458.81;;;4.52;100.00
9905;BME280;4991;43.566;27.820;2023-05-11T01:20:02;99458.91;;;4.57;100.00
9905;BME280;4991;43.566;27.820;2023-05-11T01:25:23;99452.88;;;4.34;100.00
9905;BME280;4991;43.566;27.820;2023-05-11T01:28:22;99449.59;;;4.32;100.00
9905;BME280;4991;43.566;27.820;2023-05-11T01:31:11;99445.53;;;4.29;100.00
9905;BME280;4991;43.566;27.820;2023-05-11T01:33:41;99448.25;;;4.29;100.00
9905;BME280;4991;43.566;27.820;2023-05-11T01:36:09;99445.78;;;4.28;100.00
9905;BME280;4991;43.566;27.820;2023-05-11T01:38:39;99445.88;;;4.33;100.00
9905;BME280;4991;43.566;27.820;2023-05-11T01:41:10;99450.44;;;4.32;100.00
9905;BME280;4991;43.566;27.820;2023-05-11T01:43:36;99442.44;;;4.21;100.00
9905;BME280;4991;43.566;27.820;2023-05-11T01:46:05;99444.41;;;4.25;100.00
9905;BME280;4991;43.566;27.820;2023-05-11T01:48:34;99451.66;;;4.25;100.00
9905;BME280;4991;43.566;27.820;2023-05-11T01:51:03;99440.88;;;4.25;100.00
9905;BME280;4991;43.566;27.820;2023-05-11T01:53:32;99445.22;;;4.26;100.00
9905;BME280;4991;43.566;27.820;2023-05-11T01:55:59;99443.41;;;4.31;100.00
9905;BME280;4991;43.566;27.820;2023-05-11T01:58:27;99435.97;;;4.38;100.00
9905;BME280;4991;43.566;27.820;2023-05-11T02:00:53;99437.72;;;4.28;100.00
9905;BME280;4991;43.566;27.820;2023-05-11T02:03:20;99434.94;;;4.23;100.00
9905;BME280;4991;43.566;27.820;2023-05-11T02:05:48;99433.78;;;4.19;100.00
9905;BME280;4991;43.566;27.820;2023-05-11T02:08:16;99442.94;;;4.18;100.00
9905;BME280;4991;43.566;27.820;2023-05-11T02:10:44;99439.19;;;4.19;100.00
9905;BME280;4991;43.566;27.820;2023-05-11T02:13:12;99439.34;;;4.12;100.00
9905;BME280;4991;43.566;27.820;2023-05-11T02:15:41;99441.88;;;4.19;100.00
9905;BME280;4991;43.566;27.820;2023-05-11T02:18:11;99441.53;;;4.15;100.00
9905;BME280;4991;43.566;27.820;2023-05-11T02:20:42;99441.88;;;4.19;100.00
9905;BME280;4991;43.566;27.820;2023-05-11T02:23:08;99441.22;;;4.12;100.00
9905;BME280;4991;43.566;27.820;2023-05-11T02:25:36;99440.97;;;4.13;100.00
9905;BME280;4991;43.566;27.820;2023-05-11T02:28:02;99446.19;;;4.20;100.00
9905;BME280;4991;43.566;27.820;2023-05-11T02:30:31;99433.53;;;4.20;100.00
9905;BME280;4991;43.566;27.820;2023-05-11T02:32:57;99439.44;;;4.17;100.00
9905;BME280;4991;43.566;27.820;2023-05-11T02:35:32;99442.44;;;4.21;100.00
9905;BME280;4991;43.566;27.820;2023-05-11T02:38:00;99446.75;;;4.22;100.00
9905;BME280;4991;43.566;27.820;2023-05-11T02:40:31;99439.06;;;4.30;100.00
9905;BME280;4991;43.566;27.820;2023-05-11T02:43:02;99443.09;;;4.28;100.00
9905;BME280;4991;43.566;27.820;2023-05-11T02:45:33;99442.78;;;4.24;100.00
9905;BME280;4991;43.566;27.820;2023-05-11T02:48:03;99442.44;;;4.21;100.00
9905;BME280;4991;43.566;27.820;2023-05-11T02:50:31;99443.81;;;4.23;100.00
9905;BME280;4991;43.566;27.820;2023-05-11T02:53:04;99446.34;;;4.13;100.00
9905;BME280;4991;43.566;27.820;2023-05-11T02:55:31;99456.19;;;4.19;100.00
9905;BME280;4991;43.566;27.820;2023-05-11T02:57:57;99456.50;;;4.23;100.00
9905;BME280;4991;43.566;27.820;2023-05-11T03:00:23;99450.44;;;4.32;100.00
9905;BME280;4991;43.566;27.820;2023-05-11T03:02:49;99452.88;;;4.34;100.00
9905;BME280;4991;43.566;27.820;2023-05-11T03:05:14;99451.97;;;4.28;100.00
9905;BME280;4991;43.566;27.820;2023-05-11T03:07:41;99452.38;;;4.37;100.00
9905;BME280;4991;43.566;27.820;2023-05-11T03:10:07;99454.56;;;4.40;100.00
9905;BME280;4991;43.566;27.820;2023-05-11T03:12:34;99457.66;;;4.48;100.00
9905;BME280;4991;43.566;27.820;2023-05-11T03:15:01;99457.41;;;4.50;100.00
9905;BME280;4991;43.566;27.820;2023-05-11T03:17:29;99459.31;;;4.49;100.00
9905;BME280;4991;43.566;27.820;2023-05-11T03:19:57;99463.38;;;4.52;100.00
9905;BME280;4991;43.566;27.820;2023-05-11T03:22:23;99465.09;;;4.58;100.00
9905;BME280;4991;43.566;27.820;2023-05-11T03:24:50;99464.63;;;4.61;100.00
9905;BME280;4991;43.566;27.820;2023-05-11T03:27:17;99470.81;;;4.61;100.00
9905;BME280;4991;43.566;27.820;2023-05-11T03:29:44;99463.09;;;4.70;100.00
9905;BME280;4991;43.566;27.820;2023-05-11T03:32:11;99469.03;;;4.88;100.00
9905;BME280;4991;43.566;27.820;2023-05-11T03:34:38;99464.31;;;5.00;100.00
9905;BME280;4991;43.566;27.820;2023-05-11T03:37:09;99462.53;;;5.11;100.00
9905;BME280;4991;43.566;27.820;2023-05-11T03:39:37;99469.59;;;5.12;100.00
9905;BME280;4991;43.566;27.820;2023-05-11T03:42:04;99465.94;;;5.23;100.00
9905;BME280;4991;43.566;27.820;2023-05-11T03:44:33;99466.13;;;5.16;100.00
9905;BME280;4991;43.566;27.820;2023-05-11T03:47:02;99463.69;;;5.15;100.00
9905;BME280;4991;43.566;27.820;2023-05-11T03:49:28;99469.13;;;5.20;100.00
9905;BME280;4991;43.566;27.820;2023-05-11T03:51:55;99468.44;;;5.29;100.00
9905;BME280;4991;43.566;27.820;2023-05-11T03:54:21;99464.41;;;5.32;100.00
9905;BME280;4991;43.566;27.820;2023-05-11T03:56:47;99479.84;;;5.37;100.00
9905;BME280;4991;43.566;27.820;2023-05-11T03:59:14;99471.75;;;5.37;100.00
9905;BME280;4991;43.566;27.820;2023-05-11T04:01:42;99478.72;;;5.32;100.00
9905;BME280;4991;43.566;27.820;2023-05-11T04:04:07;99480.06;;;5.30;100.00
9905;BME280;4991;43.566;27.820;2023-05-11T04:06:33;99472.81;;;5.36;100.00
9905;BME280;4991;43.566;27.820;2023-05-11T04:08:59;99479.53;;;5.33;100.00
9905;BME280;4991;43.566;27.820;2023-05-11T04:11:24;99481.78;;;5.41;100.00
9905;BME280;4991;43.566;27.820;2023-05-11T04:13:52;99481.53;;;5.43;100.00
9905;BME280;4991;43.566;27.820;2023-05-11T04:16:17;99488.91;;;5.52;100.00
9905;BME280;4991;43.566;27.820;2023-05-11T04:18:43;99488.19;;;5.57;100.00
9905;BME280;4991;43.566;27.820;2023-05-11T04:21:08;99490.16;;;5.66;100.00
9905;BME280;4991;43.566;27.820;2023-05-11T04:23:34;99496.13;;;5.68;100.00
9905;BME280;4991;43.566;27.820;2023-05-11T04:26:00;99491.75;;;5.89;100.00
9905;BME280;4991;43.566;27.820;2023-05-11T04:28:25;99494.06;;;6.02;100.00
9905;BME280;4991;43.566;27.820;2023-05-11T04:30:53;99501.69;;;6.10;100.00
9905;BME280;4991;43.566;27.820;2023-05-11T04:33:19;99498.28;;;6.24;100.00
9905;BME280;4991;43.566;27.820;2023-05-11T04:35:45;99498.38;;;6.34;100.00
9905;BME280;4991;43.566;27.820;2023-05-11T04:38:11;99496.75;;;6.38;100.00
9905;BME280;4991;43.566;27.820;2023-05-11T04:40:36;99495.53;;;6.51;100.00
9905;BME280;4991;43.566;27.820;2023-05-11T04:43:02;99488.78;;;6.58;100.00
9905;BME280;4991;43.566;27.820;2023-05-11T04:45:27;99498.88;;;6.68;100.00
9905;BME280;4991;43.566;27.820;2023-05-11T04:47:53;99497.31;;;6.77;100.00
9905;BME280;4991;43.566;27.820;2023-05-11T04:50:19;99496.28;;;6.88;100.00
9905;BME280;4991;43.566;27.820;2023-05-11T04:52:44;99500.19;;;7.07;100.00
9905;BME280;4991;43.566;27.820;2023-05-11T04:55:10;99498.06;;;7.19;100.00
9905;BME280;4991;43.566;27.820;2023-05-11T04:57:35;99500.03;;;7.34;100.00
9905;BME280;4991;43.566;27.820;2023-05-11T05:00:07;99508.22;;;7.54;100.00
9905;BME280;4991;43.566;27.820;2023-05-11T05:02:33;99512.34;;;7.76;100.00
9905;BME280;4991;43.566;27.820;2023-05-11T05:04:59;99508.81;;;7.91;100.00
9905;BME280;4991;43.566;27.820;2023-05-11T05:07:25;99514.00;;;8.08;100.00
9905;BME280;4991;43.566;27.820;2023-05-11T05:09:51;99517.59;;;8.23;100.00
9905;BME280;4991;43.566;27.820;2023-05-11T05:12:21;99515.41;;;8.35;100.00
9905;BME280;4991;43.566;27.820;2023-05-11T05:14:46;99520.28;;;8.48;100.00
9905;BME280;4991;43.566;27.820;2023-05-11T05:17:12;99518.63;;;8.57;100.00
9905;BME280;4991;43.566;27.820;2023-05-11T05:19:38;99517.28;;;8.65;100.00
9905;BME280;4991;43.566;27.820;2023-05-11T05:22:03;99521.31;;;8.82;100.00
9905;BME280;4991;43.566;27.820;2023-05-11T05:24:29;99517.22;;;9.00;100.00
9905;BME280;4991;43.566;27.820;2023-05-11T05:26:55;99526.41;;;9.19;100.00
9905;BME280;4991;43.566;27.820;2023-05-11T05:29:20;99522.28;;;9.37;100.00
9905;BME280;4991;43.566;27.820;2023-05-11T05:31:46;99527.09;;;9.50;100.00
9905;BME280;4991;43.566;27.820;2023-05-11T05:34:12;99530.25;;;9.67;100.00
9905;BME280;4991;43.566;27.820;2023-05-11T05:36:37;99526.34;;;9.88;100.00
9905;BME280;4991;43.566;27.820;2023-05-11T05:39:03;99528.41;;;10.06;100.00
9905;BME280;4991;43.566;27.820;2023-05-11T05:41:34;99533.97;;;10.34;100.00
9905;BME280;4991;43.566;27.820;2023-05-11T05:44:01;99525.78;;;10.63;100.00
9905;BME280;4991;43.566;27.820;2023-05-11T05:46:27;99525.47;;;10.70;100.00
9905;BME280;4991;43.566;27.820;2023-05-11T05:48:52;99526.72;;;10.82;100.00
9905;BME280;4991;43.566;27.820;2023-05-11T05:51:18;99528.66;;;10.77;100.00
9905;BME280;4991;43.566;27.820;2023-05-11T05:53:44;99522.94;;;10.78;100.00
9905;BME280;4991;43.566;27.820;2023-05-11T05:56:11;99525.13;;;10.76;100.00
9905;BME280;4991;43.566;27.820;2023-05-11T05:58:36;99529.69;;;10.86;100.00
9905;BME280;4991;43.566;27.820;2023-05-11T06:01:02;99522.25;;;10.91;100.00
9905;BME280;4991;43.566;27.820;2023-05-11T06:03:27;99534.34;;;11.09;100.00
9905;BME280;4991;43.566;27.820;2023-05-11T06:05:53;99528.72;;;11.24;100.00
9905;BME280;4991;43.566;27.820;2023-05-11T06:08:19;99535.97;;;11.57;100.00
9905;BME280;4991;43.566;27.820;2023-05-11T06:10:44;99542.00;;;11.54;100.00
9905;BME280;4991;43.566;27.820;2023-05-11T06:13:10;99542.75;;;11.59;100.00
9905;BME280;4991;43.566;27.820;2023-05-11T06:15:36;99538.72;;;11.76;100.00
9905;BME280;4991;43.566;27.820;2023-05-11T06:18:02;99532.19;;;11.77;100.00
9905;BME280;4991;43.566;27.820;2023-05-11T06:20:27;99528.50;;;11.86;100.00
9905;BME280;4991;43.566;27.820;2023-05-11T06:22:53;99543.56;;;11.84;100.00
9905;BME280;4991;43.566;27.820;2023-05-11T06:25:19;99542.50;;;11.80;100.00
9905;BME280;4991;43.566;27.820;2023-05-11T06:27:45;99533.44;;;11.84;100.00
9905;BME280;4991;43.566;27.820;2023-05-11T06:30:10;99546.00;;;11.85;100.00
9905;BME280;4991;43.566;27.820;2023-05-11T06:32:36;99539.22;;;12.01;100.00
9905;BME280;4991;43.566;27.820;2023-05-11T06:35:02;99544.50;;;12.30;100.00
9905;BME280;4991;43.566;27.820;2023-05-11T06:37:28;99543.09;;;12.32;100.00
9905;BME280;4991;43.566;27.820;2023-05-11T06:39:54;99545.44;;;12.39;100.00
9905;BME280;4991;43.566;27.820;2023-05-11T06:42:20;99541.03;;;12.24;100.00
9905;BME280;4991;43.566;27.820;2023-05-11T06:44:48;99537.72;;;12.27;100.00
9905;BME280;4991;43.566;27.820;2023-05-11T06:47:13;99542.72;;;12.39;100.00
9905;BME280;4991;43.566;27.820;2023-05-11T06:49:40;99536.72;;;12.55;100.00
9905;BME280;4991;43.566;27.820;2023-05-11T06:52:08;99535.16;;;12.68;100.00
9905;BME280;4991;43.566;27.820;2023-05-11T06:54:34;99534.53;;;12.71;100.00
9905;BME280;4991;43.566;27.820;2023-05-11T06:56:59;99537.44;;;12.93;100.00
9905;BME280;4991;43.566;27.820;2023-05-11T06:59:28;99529.72;;;12.95;100.00
9905;BME280;4991;43.566;27.820;2023-05-11T07:01:55;99531.25;;;12.87;100.00
9905;BME280;4991;43.566;27.820;2023-05-11T07:04:21;99526.56;;;12.74;100.00
9905;BME280;4991;43.566;27.820;2023-05-11T07:06:46;99521.97;;;12.56;100.00
9905;BME280;4991;43.566;27.820;2023-05-11T07:09:12;99528.59;;;12.82;100.00
9905;BME280;4991;43.566;27.820;2023-05-11T07:11:38;99527.97;;;13.18;100.00
9905;BME280;4991;43.566;27.820;2023-05-11T07:14:05;99529.53;;;12.91;100.00
9905;BME280;4991;43.566;27.820;2023-05-11T07:16:33;99530.19;;;13.02;100.00
9905;BME280;4991;43.566;27.820;2023-05-11T07:19:05;99523.91;;;13.29;100.00
9905;BME280;4991;43.566;27.820;2023-05-11T07:21:31;99528.56;;;13.42;100.00
9905;BME280;4991;43.566;27.820;2023-05-11T07:23:59;99527.16;;;13.31;100.00
9905;BME280;4991;43.566;27.820;2023-05-11T07:26:25;99535.06;;;13.32;100.00
9905;BME280;4991;43.566;27.820;2023-05-11T07:28:50;99546.22;;;13.22;100.00
9905;BME280;4991;43.566;27.820;2023-05-11T07:31:16;99542.97;;;13.20;100.00
9905;BME280;4991;43.566;27.820;2023-05-11T07:33:41;99534.47;;;13.35;100.00
9905;BME280;4991;43.566;27.820;2023-05-11T07:36:07;99545.81;;;13.42;100.00
9905;BME280;4991;43.566;27.820;2023-05-11T07:38:33;99541.66;;;13.45;100.00
9905;BME280;4991;43.566;27.820;2023-05-11T07:40:58;99536.59;;;13.65;100.00
9905;BME280;4991;43.566;27.820;2023-05-11T07:43:24;99546.03;;;13.73;100.00
9905;BME280;4991;43.566;27.820;2023-05-11T07:45:50;99539.97;;;13.98;100.00
9905;BME280;4991;43.566;27.820;2023-05-11T07:48:15;99543.84;;;13.83;100.00
9905;BME280;4991;43.566;27.820;2023-05-11T07:50:42;99538.19;;;13.80;100.00
9905;BME280;4991;43.566;27.820;2023-05-11T07:53:08;99546.88;;;13.95;100.00
9905;BME280;4991;43.566;27.820;2023-05-11T07:55:34;99543.19;;;14.13;100.00
9905;BME280;4991;43.566;27.820;2023-05-11T07:57:59;99536.00;;;14.04;100.00
9905;BME280;4991;43.566;27.820;2023-05-11T08:00:25;99536.84;;;13.91;100.00
9905;BME280;4991;43.566;27.820;2023-05-11T08:02:51;99528.53;;;14.32;100.00
9905;BME280;4991;43.566;27.820;2023-05-11T08:05:19;99530.28;;;14.50;100.00
9905;BME280;4991;43.566;27.820;2023-05-11T08:07:45;99525.88;;;14.62;100.00
9905;BME280;4991;43.566;27.820;2023-05-11T08:10:11;99539.25;;;14.42;100.00
9905;BME280;4991;43.566;27.820;2023-05-11T08:12:37;99531.03;;;14.42;100.00
9905;BME280;4991;43.566;27.820;2023-05-11T08:15:04;99535.16;;;14.31;100.00
9905;BME280;4991;43.566;27.820;2023-05-11T08:17:30;99534.72;;;14.37;100.00
9905;BME280;4991;43.566;27.820;2023-05-11T08:19:56;99526.13;;;14.52;100.00
9905;BME280;4991;43.566;27.820;2023-05-11T08:22:21;99537.72;;;14.49;100.00
9905;BME280;4991;43.566;27.820;2023-05-11T08:24:48;99534.88;;;14.63;100.00
9905;BME280;4991;43.566;27.820;2023-05-11T08:27:17;99542.81;;;14.64;100.00
9905;BME280;4991;43.566;27.820;2023-05-11T08:29:43;99539.81;;;14.74;100.00
9905;BME280;4991;43.566;27.820;2023-05-11T08:32:09;99530.78;;;15.04;100.00
9905;BME280;4991;43.566;27.820;2023-05-11T08:34:34;99532.59;;;15.09;100.00
9905;BME280;4991;43.566;27.820;2023-05-11T08:37:00;99532.22;;;15.32;100.00
9905;BME280;4991;43.566;27.820;2023-05-11T08:39:27;99528.31;;;15.64;100.00
9905;BME280;4991;43.566;27.820;2023-05-11T08:41:55;99524.53;;;15.12;100.00
9905;BME280;4991;43.566;27.820;2023-05-11T08:44:22;99530.47;;;14.75;100.00
9905;BME280;4991;43.566;27.820;2023-05-11T08:46:51;99522.81;;;14.64;100.00
9905;BME280;4991;43.566;27.820;2023-05-11T08:49:18;99523.88;;;15.07;100.00
9905;BME280;4991;43.566;27.820;2023-05-11T08:51:44;99518.66;;;15.36;100.00
9905;BME280;4991;43.566;27.820;2023-05-11T08:54:10;99520.38;;;15.54;100.00
9905;BME280;4991;43.566;27.820;2023-05-11T08:56:39;99521.69;;;15.26;100.00
9905;BME280;4991;43.566;27.820;2023-05-11T08:59:06;99520.53;;;15.18;100.00
9905;BME280;4991;43.566;27.820;2023-05-11T09:01:34;99521.78;;;15.12;100.00
9905;BME280;4991;43.566;27.820;2023-05-11T09:04:00;99517.53;;;14.98;100.00
9905;BME280;4991;43.566;27.820;2023-05-11T09:06:26;99517.47;;;14.89;100.00
9905;BME280;4991;43.566;27.820;2023-05-11T09:08:53;99519.53;;;15.14;100.00
9905;BME280;4991;43.566;27.820;2023-05-11T09:11:20;99516.25;;;14.95;100.00
9905;BME280;4991;43.566;27.820;2023-05-11T09:13:47;99517.72;;;15.01;100.00
9905;BME280;4991;43.566;27.820;2023-05-11T09:16:13;99520.66;;;14.83;100.00
9905;BME280;4991;43.566;27.820;2023-05-11T09:18:46;99511.53;;;14.96;100.00
9905;BME280;4991;43.566;27.820;2023-05-11T09:21:12;99510.22;;;15.24;100.00
9905;BME280;4991;43.566;27.820;2023-05-11T09:23:39;99512.31;;;14.88;100.00
9905;BME280;4991;43.566;27.820;2023-05-11T09:26:12;99499.88;;;14.82;100.00
9905;BME280;4991;43.566;27.820;2023-05-11T09:28:47;99511.97;;;14.59;100.00
9905;BME280;4991;43.566;27.820;2023-05-11T09:36:34;99502.81;;;15.72;100.00
9905;BME280;4991;43.566;27.820;2023-05-11T09:39:03;99501.91;;;16.19;100.00
9905;BME280;4991;43.566;27.820;2023-05-11T09:41:31;99499.63;;;15.96;100.00
9905;BME280;4991;43.566;27.820;2023-05-11T09:44:10;99488.75;;;16.85;100.00
9905;BME280;4991;43.566;27.820;2023-05-11T09:46:38;99497.78;;;18.39;100.00
9905;BME280;4991;43.566;27.820;2023-05-11T09:49:04;99498.00;;;19.11;100.00
9905;BME280;4991;43.566;27.820;2023-05-11T09:51:32;99496.59;;;18.93;100.00
9905;BME280;4991;43.566;27.820;2023-05-11T09:53:59;99488.75;;;18.83;100.00
9905;BME280;4991;43.566;27.820;2023-05-11T09:56:50;99488.81;;;19.92;100.00
9905;BME280;4991;43.566;27.820;2023-05-11T09:59:37;99472.59;;;21.79;100.00
9905;BME280;4991;43.566;27.820;2023-05-11T10:02:19;99486.09;;;22.34;98.96
9905;BME280;4991;43.566;27.820;2023-05-11T10:04:46;99483.78;;;21.66;95.05
9905;BME280;4991;43.566;27.820;2023-05-11T10:07:42;99482.88;;;21.62;96.68
9905;BME280;4991;43.566;27.820;2023-05-11T10:10:08;99475.31;;;22.48;90.32
9905;BME280;4991;43.566;27.820;2023-05-11T10:12:36;99485.28;;;21.95;90.08
9905;BME280;4991;43.566;27.820;2023-05-11T10:15:06;99480.69;;;20.78;99.05
9905;BME280;4991;43.566;27.820;2023-05-11T10:17:34;99489.19;;;21.94;98.24
9905;BME280;4991;43.566;27.820;2023-05-11T10:20:01;99484.63;;;22.21;89.82
9905;BME280;4991;43.566;27.820;2023-05-11T10:22:29;99474.06;;;20.83;100.00
9905;BME280;4991;43.566;27.820;2023-05-11T10:24:56;99479.78;;;20.19;100.00
9905;BME280;4991;43.566;27.820;2023-05-11T10:27:22;99480.78;;;21.91;89.21
9905;BME280;4991;43.566;27.820;2023-05-11T10:29:49;99479.59;;;22.26;81.61
9905;BME280;4991;43.566;27.820;2023-05-11T10:32:19;99465.53;;;24.15;72.59
9905;BME280;4991;43.566;27.820;2023-05-11T10:34:45;99460.75;;;24.79;67.54
9905;BME280;4991;43.566;27.820;2023-05-11T10:37:13;99477.09;;;23.20;68.28
9905;BME280;4991;43.566;27.820;2023-05-11T10:39:40;99474.41;;;21.55;71.82
9905;BME280;4991;43.566;27.820;2023-05-11T10:50:27;99462.81;;;22.99;69.97
9905;BME280;4991;43.566;27.820;2023-05-11T11:01:54;99456.09;;;23.45;66.04
9905;BME280;4991;43.566;27.820;2023-05-11T11:04:23;99459.63;;;23.94;64.44
9905;BME280;4991;43.566;27.820;2023-05-11T11:07:04;99441.66;;;24.48;61.51
9905;BME280;4991;43.566;27.820;2023-05-11T11:09:51;99462.16;;;23.51;61.20
9905;BME280;4991;43.566;27.820;2023-05-11T11:12:18;99464.06;;;22.22;63.46
9905;BME280;4991;43.566;27.820;2023-05-11T11:14:58;99465.00;;;23.80;62.15
9905;BME280;4991;43.566;27.820;2023-05-11T11:17:28;99462.72;;;25.62;59.65
9905;BME280;4991;43.566;27.820;2023-05-11T11:20:00;99450.00;;;24.77;59.68
9905;BME280;4991;43.566;27.820;2023-05-11T11:25:14;99456.59;;;24.03;57.62
9905;BME280;4991;43.566;27.820;2023-05-11T11:32:50;99456.78;;;20.42;75.96
9905;BME280;4991;43.566;27.820;2023-05-11T11:38:08;99456.00;;;22.36;71.66
9905;BME280;4991;43.566;27.820;2023-05-11T11:40:38;99463.41;;;20.26;77.73
9905;BME280;4991;43.566;27.820;2023-05-11T11:43:17;99456.41;;;20.44;79.86
9905;BME280;4991;43.566;27.820;2023-05-11T11:51:05;99453.44;;;23.52;65.13
9905;BME280;4991;43.566;27.820;2023-05-11T11:56:08;99458.53;;;21.71;71.33
9905;BME280;4991;43.566;27.820;2023-05-11T11:59:00;99463.19;;;20.74;74.64
9905;BME280;4991;43.566;27.820;2023-05-11T12:01:35;99462.03;;;18.75;84.10
9905;BME280;4991;43.566;27.820;2023-05-11T12:06:38;99455.53;;;18.06;96.10
9905;BME280;4991;43.566;27.820;2023-05-11T12:09:04;99440.41;;;19.58;87.28
9905;BME280;4991;43.566;27.820;2023-05-11T12:11:31;99440.41;;;21.58;79.21
9905;BME280;4991;43.566;27.820;2023-05-11T12:13:59;99443.66;;;20.55;79.43
9905;BME280;4991;43.566;27.820;2023-05-11T12:16:25;99450.94;;;18.51;90.79
9905;BME280;4991;43.566;27.820;2023-05-11T12:18:55;99445.66;;;18.05;96.20
9905;BME280;4991;43.566;27.820;2023-05-11T12:21:23;99451.56;;;17.74;100.00
9905;BME280;4991;43.566;27.820;2023-05-11T12:23:56;99444.66;;;18.63;100.00
9905;BME280;4991;43.566;27.820;2023-05-11T12:26:24;99449.03;;;18.76;100.00
9905;BME280;4991;43.566;27.820;2023-05-11T12:28:51;99443.56;;;18.43;100.00
9905;BME280;4991;43.566;27.820;2023-05-11T12:31:34;99444.28;;;19.21;100.00
9905;BME280;4991;43.566;27.820;2023-05-11T12:34:00;99441.59;;;17.61;100.00
9905;BME280;4991;43.566;27.820;2023-05-11T12:36:26;99440.22;;;17.18;100.00
9905;BME280;4991;43.566;27.820;2023-05-11T12:38:51;99445.53;;;16.85;100.00
9905;BME280;4991;43.566;27.820;2023-05-11T12:41:22;99440.75;;;17.40;100.00
9905;BME280;4991;43.566;27.820;2023-05-11T12:43:49;99442.91;;;17.26;100.00
9905;BME280;4991;43.566;27.820;2023-05-11T12:46:16;99441.22;;;17.05;100.00
9905;BME280;4991;43.566;27.820;2023-05-11T12:48:43;99434.09;;;18.12;100.00
9905;BME280;4991;43.566;27.820;2023-05-11T12:51:09;99425.91;;;19.89;100.00
9905;BME280;4991;43.566;27.820;2023-05-11T12:53:35;99426.38;;;22.02;100.00
9905;BME280;4991;43.566;27.820;2023-05-11T12:56:01;99429.56;;;21.19;100.00
9905;BME280;4991;43.566;27.820;2023-05-11T12:58:38;99414.66;;;19.82;100.00
9905;BME280;4991;43.566;27.820;2023-05-11T13:01:05;99423.97;;;19.89;100.00
9905;BME280;4991;43.566;27.820;2023-05-11T13:03:33;99421.59;;;20.43;100.00
9905;BME280;4991;43.566;27.820;2023-05-11T13:06:08;99418.84;;;21.02;100.00
9905;BME280;4991;43.566;27.820;2023-05-11T13:08:44;99417.72;;;20.04;100.00
9905;BME280;4991;43.566;27.820;2023-05-11T13:13:44;99426.22;;;17.81;100.00
9905;BME280;4991;43.566;27.820;2023-05-11T13:16:10;99414.03;;;17.03;100.00
9905;BME280;4991;43.566;27.820;2023-05-11T13:18:36;99420.63;;;17.48;100.00
9905;BME280;4991;43.566;27.820;2023-05-11T13:21:06;99417.47;;;16.37;100.00
9905;BME280;4991;43.566;27.820;2023-05-11T13:23:32;99411.34;;;16.48;100.00
9905;BME280;4991;43.566;27.820;2023-05-11T13:25:59;99398.66;;;17.81;100.00
9905;BME280;4991;43.566;27.820;2023-05-11T13:28:25;99394.69;;;19.24;100.00
9905;BME280;4991;43.566;27.820;2023-05-11T13:30:56;99388.44;;;19.52;100.00
9905;BME280;4991;43.566;27.820;2023-05-11T13:33:23;99389.09;;;18.20;100.00
9905;BME280;4991;43.566;27.820;2023-05-11T13:35:48;99391.91;;;17.29;100.00
9905;BME280;4991;43.566;27.820;2023-05-11T13:38:14;99399.88;;;16.46;100.00
9905;BME280;4991;43.566;27.820;2023-05-11T13:40:39;99406.66;;;16.49;100.00
9905;BME280;4991;43.566;27.820;2023-05-11T13:43:05;99393.69;;;17.95;100.00
9905;BME280;4991;43.566;27.820;2023-05-11T13:45:31;99388.22;;;19.20;100.00
9905;BME280;4991;43.566;27.820;2023-05-11T13:47:57;99379.31;;;20.42;100.00
9905;BME280;4991;43.566;27.820;2023-05-11T13:50:24;99380.78;;;20.24;100.00
9905;BME280;4991;43.566;27.820;2023-05-11T13:52:51;99383.50;;;19.97;100.00
9905;BME280;4991;43.566;27.820;2023-05-11T13:55:16;99380.84;;;20.56;100.00
9905;BME280;4991;43.566;27.820;2023-05-11T13:57:42;99384.34;;;20.99;100.00
9905;BME280;4991;43.566;27.820;2023-05-11T14:00:08;99394.03;;;21.55;98.88
9905;BME280;4991;43.566;27.820;2023-05-11T14:02:34;99380.03;;;20.86;99.09
9905;BME280;4991;43.566;27.820;2023-05-11T14:05:00;99381.19;;;19.99;98.42